CheckWX is a tool to help pilots better visualize weather data.  It is not intended as a substitute for an official pre-flight weather briefing.

07:07:30 UTC

OSLK METAR
Bassel Al-Assad International Airport
Latakia, Syria
Current

1 hour ago

OSLK 050600Z 09004KT CAVOK 27/23 Q1004
Observed
Jul-5 @ 06:00 UTC
Wind
  • 090° at 4 KTS
Visibility
10,000+ meters
Flight Rules
VFR
Cloud Levels
  • Clear skies
Temperature
27°C / 81°F
Dewpoint
23°C / 73°F
Humidity
79%
Altimeter
29.65" Hg
Pressure
1003.92 hPa
Previous

2 hours ago

OSLK 050500Z 09004KT CAVOK 26/19 Q1004
Observed
Jul-5 @ 05:00 UTC
Wind
  • 090° at 4 KTS
Visibility
10,000+ meters
Flight Rules
VFR
Cloud Levels
  • Clear skies
Temperature
26°C / 79°F
Dewpoint
19°C / 66°F
Humidity
65%
Altimeter
29.65" Hg
Pressure
1003.92 hPa
Previous

4 hours ago

OSLK 050300Z 06004KT CAVOK 22/16 Q1004
Observed
Jul-5 @ 03:00 UTC
Wind
  • 060° at 4 KTS
Visibility
10,000+ meters
Flight Rules
VFR
Cloud Levels
  • Clear skies
Temperature
22°C / 72°F
Dewpoint
16°C / 61°F
Humidity
69%
Altimeter
29.65" Hg
Pressure
1003.92 hPa